Argyle, Wisconsin
Current Conditions -  °F | °C
As of 5:15 PM on Tuesday 25 Nov 2014 (Local Time) from KEFT Reporting Station
Clear Clear  
Wind Chill: 11°   Ceiling: Unl
Heat Index: 19°   Visibility: 10mi
Dew Point: 18°   Wind: 6mph
Humidity: 93%   Direction: 230°SW
Pressure: 30.1"   Gusts: NA
Location:  42.7°N, 89.87°W
Report Text: KEFT 252315Z AUTO 23005KT 10SM CLR M07/M08 A3010 RMK AO2
Loading
Personal Weather Stations






























Interactive Weather Map New forecast layout! Learn more

10-Day Weather Forecast

Advertisements
Track Severe Weather on mobile